Sea-land Charger — WDB9948 — position and weather

sailwx.info

Track history (hours):
 
Tides and Currents Weather Stations Pressure Air Temp Water Temp Dewpoint Dewpoint Depression Visibility Wind Speed Wind Dir Waves Ship Positions

Sea-land Charger

Owner: MAERSK LINE, LIMITED, NORFOLK, VA. More information available from US FCC via Universal Licensing System.

Last reported at 2014-Oct-30 12:00 UTC. Time now 2014-Oct-31 22:55 UTC.
Position N 54°12' W 163°42'.

Type: Cargo ship. MMSI: 303279000.

Wind from 220 at 14 knots

Waves 1.0 meters (3 feet), 2 second period

Barometer 1010.5 mb
Air temperature 6.0 ° C
Visibility: greater than 10.8 NM
Dewpoint -2.3 ° C
Water temperature 10.0 ° C

Date/timePositionNaut miles runAvg speedWind from/ knotsBaromVisibWave heightAir tempDewpointWater temp
2014-Oct-30 12:00N 54°12' W 163°42'13021.6 220 / 141010.510.8 1.0 6.0-2.310.0
2014-Oct-30 06:00N 54°18' W 160°00'12721.1 330 / 131013.010.8 1.0 5.0 2.5 9.0
2014-Oct-30 00:00N 54°36' W 156°24'12320.4 340 / 301005.510.8 3.5 7.0 2.1 9.0
2014-Oct-29 18:00N 54°54' W 152°54'11619.3 350 / 12997.510.8 1.0 7.0 2.110.0
2014-Oct-29 12:00N 54°12' W 149°48'36920.5 190 / 16990.510.8 1.5 6.0 3.610.0
2014-Oct-28 18:00N 50°42' W 141°30'11218.7 310 / 161001.510.8 2.010.0 3.113.0
2014-Oct-28 12:00N 49°24' W 139°24'11318.8 330 / 25995.010.8 3.013.011.114.0
2014-Oct-28 06:00N 47°48' W 137°54'23719.8 330 / 21989.910.8 3.013.013.015.0
2014-Oct-27 18:00N 44°24' W 135°00'24620.5 240 / 221002.510.8 3.017.013.517.0
2014-Oct-27 06:00N 41°06' W 131°42'39618.4 180 / 131021.410.8 1.016.012.418.0
2014-Oct-26 08:33N 38°13' W 124°00'1111.1
2014-Oct-26 07:33N 38°12' W 123°46'1211.9
2014-Oct-26 06:34N 38°11' W 123°31'1313.2
2014-Oct-26 05:34N 38°05' W 123°16'1414.1
2014-Oct-26 04:33N 37°56' W 123°03'1514.6
2014-Oct-26 03:33N 37°49' W 122°46'1111.0
2014-Oct-26 02:34N 37°48' W 122°33'1010.1
2014-Oct-26 01:33N 37°49' W 122°20'0 0.4
2014-Oct-26 00:33N 37°49' W 122°19'0 0.0
2014-Oct-25 23:33N 37°49' W 122°19'0 0.0
2014-Oct-25 22:33N 37°49' W 122°19'0 0.0
2014-Oct-25 21:33N 37°49' W 122°19'0 0.0
2014-Oct-25 20:33N 37°49' W 122°19'0 0.0
2014-Oct-25 19:33N 37°49' W 122°19'0 0.0
2014-Oct-25 18:33N 37°49' W 122°19'0 0.0
2014-Oct-25 17:33N 37°49' W 122°19'0 0.0
2014-Oct-25 16:33N 37°49' W 122°19'0 0.0
2014-Oct-25 15:33N 37°49' W 122°19'0 0.0
2014-Oct-25 14:33N 37°49' W 122°19'0 0.0
2014-Oct-25 13:33N 37°49' W 122°19'1 0.5
2014-Oct-25 12:34N 37°49' W 122°20'8 7.7
2014-Oct-25 11:34N 37°49' W 122°30'1212.4
2014-Oct-25 10:33N 37°43' W 122°44'8 7.9
2014-Oct-25 09:34N 37°38' W 122°52'1111.3
2014-Oct-25 08:33N 37°31' W 123°03'1312.9
2014-Oct-25 07:33N 37°18' W 122°58'2410.9
2014-Oct-25 05:21N 36°55' W 123°04'911.0
2014-Oct-25 04:33N 36°47' W 123°00'1312.5
2014-Oct-25 03:33N 36°41' W 122°46'1212.1
2014-Oct-25 02:32N 36°31' W 122°37'1312.9
2014-Oct-25 01:33N 36°19' W 122°30'1312.6
2014-Oct-25 00:33N 36°08' W 122°24'1212.4
2014-Oct-24 23:33N 35°57' W 122°16'1212.4
2014-Oct-24 22:33N 35°47' W 122°07'1212.5
2014-Oct-24 21:33N 35°37' W 121°58'1212.3
2014-Oct-24 20:33N 35°28' W 121°48'1211.9
2014-Oct-24 19:33N 35°18' W 121°39'1212.3
2014-Oct-24 18:33N 35°09' W 121°30'5312.0
2014-Oct-24 14:11N 34°27' W 120°51'711.6
2014-Oct-24 13:33N 34°24' W 120°43'1212.3
2014-Oct-24 12:33N 34°21' W 120°29'1212.3
2014-Oct-24 11:33N 34°18' W 120°14'1212.4
2014-Oct-24 10:33N 34°14' W 119°60'1212.5
2014-Oct-24 09:33N 34°11' W 119°45'1312.8
2014-Oct-24 08:33N 34°08' W 119°30'1312.7
2014-Oct-24 07:33N 34°04' W 119°16'1312.5
2014-Oct-24 06:33N 33°58' W 119°02'1312.6
2014-Oct-24 05:33N 33°52' W 118°49'1212.1
2014-Oct-24 04:33N 33°46' W 118°36'1211.7
2014-Oct-24 03:34N 33°40' W 118°24'8 7.9
2014-Oct-24 02:33N 33°42' W 118°15'2 2.2
2014-Oct-24 01:33N 33°44' W 118°15'0 0.0
2014-Oct-24 00:31N 33°44' W 118°15'0 0.0
2014-Oct-23 23:31N 33°44' W 118°15'0 0.0
2014-Oct-23 22:31N 33°44' W 118°15'0 0.0
2014-Oct-23 21:31N 33°44' W 118°15'0 0.0
2014-Oct-23 20:31N 33°44' W 118°15'0 0.0
2014-Oct-23 19:25N 33°44' W 118°15'0 0.0
2014-Oct-23 18:31N 33°44' W 118°15'0 0.0
2014-Oct-23 17:31N 33°44' W 118°15'0 0.0
2014-Oct-23 16:28N 33°44' W 118°15'0 0.0
2014-Oct-23 15:28N 33°44' W 118°15'0 0.0
2014-Oct-23 14:31N 33°44' W 118°15'0 0.0
2014-Oct-23 13:31N 33°44' W 118°15'0 0.0
2014-Oct-23 12:31N 33°44' W 118°15'0 0.0
2014-Oct-23 11:31N 33°44' W 118°15'0 0.0
2014-Oct-23 10:31N 33°44' W 118°15'0 0.0
2014-Oct-23 09:31N 33°44' W 118°15'0 0.0
2014-Oct-23 08:31N 33°44' W 118°15'0 0.0
2014-Oct-23 07:31N 33°44' W 118°15'0 0.0
2014-Oct-23 06:31N 33°44' W 118°15'0 0.0
2014-Oct-23 05:31N 33°44' W 118°15'0 0.0
2014-Oct-23 04:31N 33°44' W 118°15'0 0.0
2014-Oct-23 03:31N 33°44' W 118°15'0 0.0
2014-Oct-23 02:31N 33°44' W 118°15'0 0.0
2014-Oct-23 01:28N 33°44' W 118°15'0 0.0
2014-Oct-23 00:31N 33°44' W 118°15'0 0.0
2014-Oct-22 23:31N 33°44' W 118°15'0 0.0
2014-Oct-22 22:31N 33°44' W 118°15'0 0.0
2014-Oct-22 21:31N 33°44' W 118°15'0 0.0
2014-Oct-22 20:31N 33°44' W 118°15'0 0.0
2014-Oct-22 19:31N 33°44' W 118°15'0 0.0
2014-Oct-22 18:31N 33°44' W 118°15'0 0.0
2014-Oct-22 17:28N 33°44' W 118°15'0 0.0
2014-Oct-22 16:31N 33°44' W 118°15'0 0.0
2014-Oct-22 15:31N 33°44' W 118°15'0 0.0
2014-Oct-22 14:31N 33°44' W 118°15'0 0.0
2014-Oct-22 13:31N 33°44' W 118°15'0 0.0
2014-Oct-22 12:31N 33°44' W 118°15'0 0.0
2014-Oct-22 11:31N 33°44' W 118°15'0 0.0
2014-Oct-22 10:31N 33°44' W 118°15'0 0.0
2014-Oct-22 09:31N 33°44' W 118°15'0 0.0
2014-Oct-22 08:31N 33°44' W 118°15'0 0.0
2014-Oct-22 07:31N 33°44' W 118°15'0 0.0
2014-Oct-22 06:31N 33°44' W 118°15'0 0.0
2014-Oct-22 05:31N 33°44' W 118°15'0 0.0
2014-Oct-22 04:31N 33°44' W 118°15'0 0.0
2014-Oct-22 03:31N 33°44' W 118°15'0 0.0
2014-Oct-22 02:31N 33°44' W 118°15'0 0.0
2014-Oct-22 01:31N 33°44' W 118°15'0 0.0
2014-Oct-22 00:31N 33°44' W 118°15'0 0.0
2014-Oct-21 23:31N 33°44' W 118°15'0 0.0
2014-Oct-21 22:31N 33°44' W 118°15'0 0.0
2014-Oct-21 21:31N 33°44' W 118°15'0 0.0
2014-Oct-21 20:31N 33°44' W 118°15'0 0.0
2014-Oct-21 19:31N 33°44' W 118°15'0 0.2
2014-Oct-21 18:31N 33°44' W 118°15'0 0.0
2014-Oct-21 17:31N 33°44' W 118°15'0 0.0
2014-Oct-21 16:31N 33°44' W 118°15'0 0.0
2014-Oct-21 15:31N 33°44' W 118°15'0 0.0
2014-Oct-21 14:31N 33°44' W 118°15'0 0.0
2014-Oct-21 13:31N 33°44' W 118°15'0 0.0
2014-Oct-21 12:31N 33°44' W 118°15'0 0.0
2014-Oct-21 11:31N 33°44' W 118°15'0 0.0
2014-Oct-21 10:31N 33°44' W 118°15'0 0.0
2014-Oct-21 09:31N 33°44' W 118°15'0 0.0
2014-Oct-21 08:31N 33°44' W 118°15'0 0.0
2014-Oct-21 07:31N 33°44' W 118°15'0 0.0
2014-Oct-21 06:31N 33°44' W 118°15'0 0.0
2014-Oct-21 05:31N 33°44' W 118°15'0 0.0
2014-Oct-21 04:31N 33°44' W 118°15'0 0.0
2014-Oct-21 03:31N 33°44' W 118°15'0 0.0
2014-Oct-21 02:31N 33°44' W 118°15'0 0.0
2014-Oct-21 01:31N 33°44' W 118°15'0 0.0
2014-Oct-21 00:31N 33°44' W 118°15'0 0.0
2014-Oct-20 23:31N 33°44' W 118°15'0 0.0
2014-Oct-20 22:31N 33°44' W 118°15'0 0.0
2014-Oct-20 21:31N 33°44' W 118°15'0 0.0
2014-Oct-20 20:31N 33°44' W 118°15'0 0.0
2014-Oct-20 19:31N 33°44' W 118°15'0 0.0
2014-Oct-20 18:31N 33°44' W 118°15'0 0.0
2014-Oct-20 17:31N 33°44' W 118°15'0 0.0
2014-Oct-20 16:28N 33°44' W 118°15'0 0.0
2014-Oct-20 15:31N 33°44' W 118°15'0 0.0
2014-Oct-20 14:31N 33°44' W 118°15'0 0.0
2014-Oct-20 13:32N 33°44' W 118°15'1 1.4
2014-Oct-20 12:33N 33°43' W 118°15'  
Track history (hours):
 
Tides and Currents Weather Stations Pressure Air Temp Water Temp Dewpoint Dewpoint Depression Visibility Wind Speed Wind Dir Waves Ship Positions

Sea-land Charger

Owner: MAERSK LINE, LIMITED, NORFOLK, VA. More information available from US FCC via Universal Licensing System.

Last reported at 2014-Oct-30 12:00 UTC. Time now 2014-Oct-31 22:55 UTC.
Position N 54°12' W 163°42'.

Type: Cargo ship. MMSI: 303279000.

Wind from 220 at 14 knots

Waves 1.0 meters (3 feet), 2 second period

Barometer 1010.5 mb
Air temperature 6.0 ° C
Visibility: greater than 10.8 NM
Dewpoint -2.3 ° C
Water temperature 10.0 ° C

Date/timePositionNaut miles runAvg speedWind from/ knotsBaromVisibWave heightAir tempDewpointWater temp
2014-Oct-30 12:00N 54°12' W 163°42'13021.6 220 / 141010.510.8 1.0 6.0-2.310.0
2014-Oct-30 06:00N 54°18' W 160°00'12721.1 330 / 131013.010.8 1.0 5.0 2.5 9.0
2014-Oct-30 00:00N 54°36' W 156°24'12320.4 340 / 301005.510.8 3.5 7.0 2.1 9.0
2014-Oct-29 18:00N 54°54' W 152°54'11619.3 350 / 12997.510.8 1.0 7.0 2.110.0
2014-Oct-29 12:00N 54°12' W 149°48'36920.5 190 / 16990.510.8 1.5 6.0 3.610.0
2014-Oct-28 18:00N 50°42' W 141°30'11218.7 310 / 161001.510.8 2.010.0 3.113.0
2014-Oct-28 12:00N 49°24' W 139°24'11318.8 330 / 25995.010.8 3.013.011.114.0
2014-Oct-28 06:00N 47°48' W 137°54'23719.8 330 / 21989.910.8 3.013.013.015.0
2014-Oct-27 18:00N 44°24' W 135°00'24620.5 240 / 221002.510.8 3.017.013.517.0
2014-Oct-27 06:00N 41°06' W 131°42'39618.4 180 / 131021.410.8 1.016.012.418.0
2014-Oct-26 08:33N 38°13' W 124°00'1111.1
2014-Oct-26 07:33N 38°12' W 123°46'1211.9
2014-Oct-26 06:34N 38°11' W 123°31'1313.2
2014-Oct-26 05:34N 38°05' W 123°16'1414.1
2014-Oct-26 04:33N 37°56' W 123°03'1514.6
2014-Oct-26 03:33N 37°49' W 122°46'1111.0
2014-Oct-26 02:34N 37°48' W 122°33'1010.1
2014-Oct-26 01:33N 37°49' W 122°20'0 0.4
2014-Oct-26 00:33N 37°49' W 122°19'0 0.0
2014-Oct-25 23:33N 37°49' W 122°19'0 0.0
2014-Oct-25 22:33N 37°49' W 122°19'0 0.0
2014-Oct-25 21:33N 37°49' W 122°19'0 0.0
2014-Oct-25 20:33N 37°49' W 122°19'0 0.0
2014-Oct-25 19:33N 37°49' W 122°19'0 0.0
2014-Oct-25 18:33N 37°49' W 122°19'0 0.0
2014-Oct-25 17:33N 37°49' W 122°19'0 0.0
2014-Oct-25 16:33N 37°49' W 122°19'0 0.0
2014-Oct-25 15:33N 37°49' W 122°19'0 0.0
2014-Oct-25 14:33N 37°49' W 122°19'0 0.0
2014-Oct-25 13:33N 37°49' W 122°19'1 0.5
2014-Oct-25 12:34N 37°49' W 122°20'8 7.7
2014-Oct-25 11:34N 37°49' W 122°30'1212.4
2014-Oct-25 10:33N 37°43' W 122°44'8 7.9
2014-Oct-25 09:34N 37°38' W 122°52'1111.3
2014-Oct-25 08:33N 37°31' W 123°03'1312.9
2014-Oct-25 07:33N 37°18' W 122°58'2410.9
2014-Oct-25 05:21N 36°55' W 123°04'911.0
2014-Oct-25 04:33N 36°47' W 123°00'1312.5
2014-Oct-25 03:33N 36°41' W 122°46'1212.1
2014-Oct-25 02:32N 36°31' W 122°37'1312.9
2014-Oct-25 01:33N 36°19' W 122°30'1312.6
2014-Oct-25 00:33N 36°08' W 122°24'1212.4
2014-Oct-24 23:33N 35°57' W 122°16'1212.4
2014-Oct-24 22:33N 35°47' W 122°07'1212.5
2014-Oct-24 21:33N 35°37' W 121°58'1212.3
2014-Oct-24 20:33N 35°28' W 121°48'1211.9
2014-Oct-24 19:33N 35°18' W 121°39'1212.3
2014-Oct-24 18:33N 35°09' W 121°30'5312.0
2014-Oct-24 14:11N 34°27' W 120°51'711.6
2014-Oct-24 13:33N 34°24' W 120°43'1212.3
2014-Oct-24 12:33N 34°21' W 120°29'1212.3
2014-Oct-24 11:33N 34°18' W 120°14'1212.4
2014-Oct-24 10:33N 34°14' W 119°60'1212.5
2014-Oct-24 09:33N 34°11' W 119°45'1312.8
2014-Oct-24 08:33N 34°08' W 119°30'1312.7
2014-Oct-24 07:33N 34°04' W 119°16'1312.5
2014-Oct-24 06:33N 33°58' W 119°02'1312.6
2014-Oct-24 05:33N 33°52' W 118°49'1212.1
2014-Oct-24 04:33N 33°46' W 118°36'1211.7
2014-Oct-24 03:34N 33°40' W 118°24'8 7.9
2014-Oct-24 02:33N 33°42' W 118°15'2 2.2
2014-Oct-24 01:33N 33°44' W 118°15'0 0.0
2014-Oct-24 00:31N 33°44' W 118°15'0 0.0
2014-Oct-23 23:31N 33°44' W 118°15'0 0.0
2014-Oct-23 22:31N 33°44' W 118°15'0 0.0
2014-Oct-23 21:31N 33°44' W 118°15'0 0.0
2014-Oct-23 20:31N 33°44' W 118°15'0 0.0
2014-Oct-23 19:25N 33°44' W 118°15'0 0.0
2014-Oct-23 18:31N 33°44' W 118°15'0 0.0
2014-Oct-23 17:31N 33°44' W 118°15'0 0.0
2014-Oct-23 16:28N 33°44' W 118°15'0 0.0
2014-Oct-23 15:28N 33°44' W 118°15'0 0.0
2014-Oct-23 14:31N 33°44' W 118°15'0 0.0
2014-Oct-23 13:31N 33°44' W 118°15'0 0.0
2014-Oct-23 12:31N 33°44' W 118°15'0 0.0
2014-Oct-23 11:31N 33°44' W 118°15'0 0.0
2014-Oct-23 10:31N 33°44' W 118°15'0 0.0
2014-Oct-23 09:31N 33°44' W 118°15'0 0.0
2014-Oct-23 08:31N 33°44' W 118°15'0 0.0
2014-Oct-23 07:31N 33°44' W 118°15'0 0.0
2014-Oct-23 06:31N 33°44' W 118°15'0 0.0
2014-Oct-23 05:31N 33°44' W 118°15'0 0.0
2014-Oct-23 04:31N 33°44' W 118°15'0 0.0
2014-Oct-23 03:31N 33°44' W 118°15'0 0.0
2014-Oct-23 02:31N 33°44' W 118°15'0 0.0
2014-Oct-23 01:28N 33°44' W 118°15'0 0.0
2014-Oct-23 00:31N 33°44' W 118°15'0 0.0
2014-Oct-22 23:31N 33°44' W 118°15'0 0.0
2014-Oct-22 22:31N 33°44' W 118°15'0 0.0
2014-Oct-22 21:31N 33°44' W 118°15'0 0.0
2014-Oct-22 20:31N 33°44' W 118°15'0 0.0
2014-Oct-22 19:31N 33°44' W 118°15'0 0.0
2014-Oct-22 18:31N 33°44' W 118°15'0 0.0
2014-Oct-22 17:28N 33°44' W 118°15'0 0.0
2014-Oct-22 16:31N 33°44' W 118°15'0 0.0
2014-Oct-22 15:31N 33°44' W 118°15'0 0.0
2014-Oct-22 14:31N 33°44' W 118°15'0 0.0
2014-Oct-22 13:31N 33°44' W 118°15'0 0.0
2014-Oct-22 12:31N 33°44' W 118°15'0 0.0
2014-Oct-22 11:31N 33°44' W 118°15'0 0.0
2014-Oct-22 10:31N 33°44' W 118°15'0 0.0
2014-Oct-22 09:31N 33°44' W 118°15'0 0.0
2014-Oct-22 08:31N 33°44' W 118°15'0 0.0
2014-Oct-22 07:31N 33°44' W 118°15'0 0.0
2014-Oct-22 06:31N 33°44' W 118°15'0 0.0
2014-Oct-22 05:31N 33°44' W 118°15'0 0.0
2014-Oct-22 04:31N 33°44' W 118°15'0 0.0
2014-Oct-22 03:31N 33°44' W 118°15'0 0.0
2014-Oct-22 02:31N 33°44' W 118°15'0 0.0
2014-Oct-22 01:31N 33°44' W 118°15'0 0.0
2014-Oct-22 00:31N 33°44' W 118°15'0 0.0
2014-Oct-21 23:31N 33°44' W 118°15'0 0.0
2014-Oct-21 22:31N 33°44' W 118°15'0 0.0
2014-Oct-21 21:31N 33°44' W 118°15'0 0.0
2014-Oct-21 20:31N 33°44' W 118°15'0 0.0
2014-Oct-21 19:31N 33°44' W 118°15'0 0.2
2014-Oct-21 18:31N 33°44' W 118°15'0 0.0
2014-Oct-21 17:31N 33°44' W 118°15'0 0.0
2014-Oct-21 16:31N 33°44' W 118°15'0 0.0
2014-Oct-21 15:31N 33°44' W 118°15'0 0.0
2014-Oct-21 14:31N 33°44' W 118°15'0 0.0
2014-Oct-21 13:31N 33°44' W 118°15'0 0.0
2014-Oct-21 12:31N 33°44' W 118°15'0 0.0
2014-Oct-21 11:31N 33°44' W 118°15'0 0.0
2014-Oct-21 10:31N 33°44' W 118°15'0 0.0
2014-Oct-21 09:31N 33°44' W 118°15'0 0.0
2014-Oct-21 08:31N 33°44' W 118°15'0 0.0
2014-Oct-21 07:31N 33°44' W 118°15'0 0.0
2014-Oct-21 06:31N 33°44' W 118°15'0 0.0
2014-Oct-21 05:31N 33°44' W 118°15'0 0.0
2014-Oct-21 04:31N 33°44' W 118°15'0 0.0
2014-Oct-21 03:31N 33°44' W 118°15'0 0.0
2014-Oct-21 02:31N 33°44' W 118°15'0 0.0
2014-Oct-21 01:31N 33°44' W 118°15'0 0.0
2014-Oct-21 00:31N 33°44' W 118°15'0 0.0
2014-Oct-20 23:31N 33°44' W 118°15'0 0.0
2014-Oct-20 22:31N 33°44' W 118°15'0 0.0
2014-Oct-20 21:31N 33°44' W 118°15'0 0.0
2014-Oct-20 20:31N 33°44' W 118°15'0 0.0
2014-Oct-20 19:31N 33°44' W 118°15'0 0.0
2014-Oct-20 18:31N 33°44' W 118°15'0 0.0
2014-Oct-20 17:31N 33°44' W 118°15'0 0.0
2014-Oct-20 16:28N 33°44' W 118°15'0 0.0
2014-Oct-20 15:31N 33°44' W 118°15'0 0.0
2014-Oct-20 14:31N 33°44' W 118°15'0 0.0
2014-Oct-20 13:32N 33°44' W 118°15'1 1.4
2014-Oct-20 12:33N 33°43' W 118°15'  

Dump ship's entire track history